createdAt,value
2023-02-06T00:01:33.191Z,36.00
2023-02-06T00:04:00.059Z,36.00
2023-02-06T00:06:27.008Z,35.90
2023-02-06T00:08:53.987Z,35.90
2023-02-06T00:11:21.764Z,36.00
2023-02-06T00:13:49.691Z,36.00
2023-02-06T00:16:33.963Z,36.00
2023-02-06T00:19:02.098Z,36.10
2023-02-06T00:21:30.784Z,36.00
2023-02-06T00:24:01.008Z,36.00
2023-02-06T00:26:27.980Z,36.10
2023-02-06T00:28:54.982Z,36.10
2023-02-06T00:31:22.024Z,36.10
2023-02-06T00:33:49.556Z,36.10
2023-02-06T00:36:16.504Z,36.00
2023-02-06T00:38:43.437Z,36.00
2023-02-06T00:41:10.342Z,36.10
2023-02-06T00:43:37.736Z,36.10
2023-02-06T00:46:04.910Z,36.10
2023-02-06T00:48:31.950Z,36.20
2023-02-06T00:50:58.833Z,36.10
2023-02-06T00:53:25.906Z,36.20
2023-02-06T00:55:52.801Z,36.20
2023-02-06T00:58:20.004Z,36.20
2023-02-06T01:00:47.085Z,36.30
2023-02-06T01:03:13.996Z,36.20
2023-02-06T01:05:40.900Z,36.20
2023-02-06T01:08:07.791Z,36.20
2023-02-06T01:10:35.174Z,36.20
2023-02-06T01:13:02.218Z,36.20
2023-02-06T01:15:29.210Z,36.20
2023-02-06T01:17:56.087Z,36.20
2023-02-06T01:20:23.954Z,36.30
2023-02-06T01:22:51.650Z,36.30
2023-02-06T01:25:18.895Z,36.30
2023-02-06T01:27:45.988Z,36.20
2023-02-06T01:30:13.700Z,36.30
2023-02-06T01:32:42.376Z,36.30
2023-02-06T01:35:12.101Z,36.20
2023-02-06T01:37:40.472Z,36.20
2023-02-06T01:40:12.642Z,36.20
2023-02-06T01:42:39.937Z,36.30
2023-02-06T01:45:41.403Z,36.30
2023-02-06T01:48:17.142Z,36.40
2023-02-06T01:50:49.349Z,36.50
2023-02-06T01:53:18.369Z,36.30
2023-02-06T01:55:48.380Z,36.30
2023-02-06T01:58:23.496Z,36.40
2023-02-06T02:00:50.880Z,36.40
2023-02-06T02:03:18.184Z,36.30
2023-02-06T02:05:47.370Z,36.40
2023-02-06T02:08:25.523Z,36.40
2023-02-06T02:10:52.662Z,36.50
2023-02-06T02:13:19.578Z,36.40
2023-02-06T02:15:59.949Z,36.40
2023-02-06T02:18:43.770Z,36.50
2023-02-06T02:21:22.537Z,36.50
2023-02-06T02:24:13.685Z,36.40
2023-02-06T02:27:36.367Z,36.40
2023-02-06T02:30:19.827Z,36.60
2023-02-06T02:33:12.302Z,36.30
2023-02-06T02:36:13.371Z,36.50
2023-02-06T02:38:53.182Z,36.60
2023-02-06T02:41:36.976Z,36.40
2023-02-06T02:44:11.175Z,36.50
2023-02-06T02:46:44.539Z,36.50
2023-02-06T02:49:24.795Z,36.50
2023-02-06T02:51:53.012Z,36.60
2023-02-06T02:54:20.285Z,36.50
2023-02-06T02:56:47.577Z,36.40
2023-02-06T02:59:43.261Z,36.50
2023-02-06T03:02:30.509Z,36.50
2023-02-06T03:05:05.783Z,36.60
2023-02-06T03:07:56.572Z,36.60
2023-02-06T03:10:59.014Z,36.60
2023-02-06T03:13:58.130Z,36.60
2023-02-06T03:16:40.618Z,36.60
2023-02-06T03:19:22.196Z,36.60
2023-02-06T03:21:50.201Z,36.60
2023-02-06T03:24:26.294Z,36.60
2023-02-06T03:27:00.014Z,36.60
2023-02-06T03:29:31.228Z,36.70
2023-02-06T03:32:08.510Z,36.60
2023-02-06T03:35:01.901Z,36.60
2023-02-06T03:37:30.534Z,36.70
2023-02-06T03:40:01.471Z,36.60
2023-02-06T03:42:31.470Z,36.60
2023-02-06T03:45:07.789Z,36.60
2023-02-06T03:47:39.323Z,36.70
2023-02-06T03:50:10.606Z,36.70
2023-02-06T03:52:45.348Z,36.60
2023-02-06T03:55:19.024Z,36.60
2023-02-06T03:57:52.430Z,36.70
2023-02-06T04:00:20.776Z,36.70
2023-02-06T04:02:49.173Z,36.70
2023-02-06T04:05:18.220Z,36.70
2023-02-06T04:07:45.398Z,36.70
2023-02-06T04:10:12.785Z,36.70
2023-02-06T04:12:39.876Z,36.80
2023-02-06T04:15:07.259Z,36.80
2023-02-06T04:17:49.646Z,36.70
2023-02-06T04:20:21.353Z,36.80
2023-02-06T04:22:48.494Z,36.70
2023-02-06T04:25:15.789Z,36.70
2023-02-06T04:27:42.644Z,36.80
2023-02-06T04:30:10.699Z,36.80
2023-02-06T04:32:37.663Z,36.80
2023-02-06T04:35:05.427Z,36.80
2023-02-06T04:37:32.854Z,36.80
2023-02-06T04:39:59.766Z,36.90
2023-02-06T04:42:26.788Z,36.80
2023-02-06T04:44:53.692Z,36.80
2023-02-06T04:47:20.642Z,36.80
2023-02-06T04:49:47.714Z,36.80
2023-02-06T04:52:14.772Z,36.90
2023-02-06T04:54:41.753Z,36.90
2023-02-06T04:57:08.632Z,36.90
2023-02-06T04:59:35.503Z,36.90
2023-02-06T05:02:02.493Z,36.90
2023-02-06T05:04:29.365Z,36.90
2023-02-06T05:06:56.393Z,36.90
2023-02-06T05:09:23.294Z,36.90
2023-02-06T05:11:50.247Z,36.90
2023-02-06T05:14:17.146Z,36.90
2023-02-06T05:16:45.476Z,37.00
2023-02-06T05:19:12.512Z,37.00
2023-02-06T05:21:39.427Z,37.00
2023-02-06T05:24:06.434Z,37.00
2023-02-06T05:26:33.385Z,36.90
2023-02-06T05:29:00.267Z,36.90
2023-02-06T05:31:27.176Z,36.90
2023-02-06T05:33:55.094Z,36.90
2023-02-06T05:36:23.097Z,37.00
2023-02-06T05:38:50.603Z,37.00
2023-02-06T05:41:18.032Z,37.00
2023-02-06T05:43:45.037Z,37.00
2023-02-06T05:46:13.005Z,37.00
2023-02-06T05:48:40.903Z,37.00
2023-02-06T05:51:08.400Z,37.20
2023-02-06T05:53:35.393Z,37.00
2023-02-06T05:56:02.574Z,37.00
2023-02-06T05:58:29.515Z,37.00
2023-02-06T06:00:56.563Z,37.00
2023-02-06T06:03:23.511Z,37.00
2023-02-06T06:05:50.467Z,37.00
2023-02-06T06:08:17.472Z,37.00
2023-02-06T06:10:44.482Z,37.00
2023-02-06T06:13:11.920Z,37.10
2023-02-06T06:15:38.848Z,37.10
2023-02-06T06:18:05.740Z,37.10
2023-02-06T06:20:32.604Z,37.10
2023-02-06T06:22:59.469Z,37.10
2023-02-06T06:25:26.349Z,37.10
2023-02-06T06:27:53.547Z,37.10
2023-02-06T06:30:20.636Z,37.00
2023-02-06T06:32:47.639Z,37.70
2023-02-06T06:35:14.474Z,37.10
2023-02-06T06:37:41.355Z,37.10
2023-02-06T06:40:08.953Z,37.30
2023-02-06T06:42:35.933Z,37.60
2023-02-06T06:45:03.095Z,37.70
2023-02-06T06:47:30.041Z,37.90
2023-02-06T06:49:56.951Z,38.10
2023-02-06T06:52:25.644Z,38.20
2023-02-06T06:54:53.614Z,38.30
2023-02-06T06:57:22.327Z,38.30
2023-02-06T06:59:50.040Z,38.30
2023-02-06T07:02:17.257Z,38.30
2023-02-06T07:04:44.182Z,38.30
2023-02-06T07:07:11.167Z,38.20
2023-02-06T07:09:38.118Z,38.30
2023-02-06T07:12:05.684Z,38.40
2023-02-06T07:14:32.598Z,38.40
2023-02-06T07:17:01.542Z,38.20
2023-02-06T07:19:28.547Z,38.30
2023-02-06T07:21:55.421Z,38.30
2023-02-06T07:24:22.369Z,38.20
2023-02-06T07:26:49.397Z,38.30
2023-02-06T07:29:16.323Z,38.20
2023-02-06T07:31:43.413Z,38.10
2023-02-06T07:34:10.358Z,38.00
2023-02-06T07:36:38.999Z,38.00
2023-02-06T07:39:06.254Z,38.00
2023-02-06T07:41:33.251Z,38.00
2023-02-06T07:44:00.799Z,37.90
2023-02-06T07:46:28.175Z,37.70
2023-02-06T07:48:55.036Z,37.90
2023-02-06T07:51:22.962Z,37.90
2023-02-06T07:53:50.332Z,37.90
2023-02-06T07:56:19.940Z,37.60
2023-02-06T07:58:54.979Z,37.70
2023-02-06T08:01:23.539Z,37.60
2023-02-06T08:03:53.507Z,37.60
2023-02-06T08:06:24.259Z,37.50
2023-02-06T08:08:54.997Z,37.50
2023-02-06T08:11:30.245Z,37.40
2023-02-06T08:13:57.499Z,37.40
2023-02-06T08:16:25.092Z,37.40
2023-02-06T08:18:52.402Z,37.30
2023-02-06T08:21:25.313Z,37.30
2023-02-06T08:24:00.248Z,37.20
2023-02-06T08:26:29.666Z,37.10
2023-02-06T08:29:00.429Z,37.20
2023-02-06T08:31:32.101Z,37.20
2023-02-06T08:33:59.219Z,37.10
2023-02-06T08:36:28.314Z,37.20
2023-02-06T08:38:55.557Z,37.10
2023-02-06T08:41:39.129Z,37.10
2023-02-06T08:44:11.840Z,37.00
2023-02-06T08:46:40.559Z,37.00
2023-02-06T08:49:15.065Z,37.10
2023-02-06T08:51:42.747Z,36.70
2023-02-06T08:54:18.169Z,37.00
2023-02-06T08:56:45.839Z,36.80
2023-02-06T08:59:15.765Z,36.80
2023-02-06T09:01:49.152Z,36.80
2023-02-06T09:04:16.811Z,36.80
2023-02-06T09:06:47.773Z,36.70
2023-02-06T09:09:16.227Z,36.70
2023-02-06T09:11:43.901Z,36.60
2023-02-06T09:14:16.325Z,36.60
2023-02-06T09:16:43.394Z,36.50
2023-02-06T09:19:11.595Z,36.50
2023-02-06T09:21:39.381Z,36.50
2023-02-06T09:24:09.043Z,36.40
2023-02-06T09:26:58.523Z,36.00
2023-02-06T09:29:29.145Z,36.20
2023-02-06T09:31:57.561Z,36.00
2023-02-06T09:34:26.048Z,36.40
2023-02-06T09:36:57.793Z,36.40
2023-02-06T09:39:25.825Z,36.20
2023-02-06T09:41:59.949Z,36.10
2023-02-06T09:44:47.107Z,36.20
2023-02-06T09:47:25.719Z,36.10
2023-02-06T09:50:07.680Z,36.10
2023-02-06T09:53:13.601Z,36.00
2023-02-06T09:55:46.371Z,36.00
2023-02-06T09:58:58.034Z,36.20
2023-02-06T10:01:37.482Z,36.20
2023-02-06T10:04:22.662Z,36.10
2023-02-06T10:06:59.330Z,36.00
2023-02-06T10:09:44.096Z,36.30
2023-02-06T10:12:35.587Z,36.30
2023-02-06T10:15:24.395Z,36.10
2023-02-06T10:18:29.985Z,36.20
2023-02-06T10:21:06.199Z,36.20
2023-02-06T10:24:02.586Z,36.10
2023-02-06T10:26:29.715Z,36.20
2023-02-06T10:29:00.172Z,36.00
2023-02-06T10:31:57.993Z,35.90
2023-02-06T10:34:47.252Z,36.00
2023-02-06T10:37:47.735Z,36.00
2023-02-06T10:40:45.293Z,35.60
2023-02-06T10:43:33.331Z,35.60
2023-02-06T10:46:31.326Z,35.60
2023-02-06T10:49:30.494Z,35.50
2023-02-06T10:52:31.905Z,35.50
2023-02-06T10:55:16.990Z,35.50
2023-02-06T10:57:50.776Z,35.60
2023-02-06T11:00:26.566Z,35.70
2023-02-06T11:03:07.186Z,35.50
2023-02-06T11:05:35.990Z,35.60
2023-02-06T11:08:35.892Z,35.70
2023-02-06T11:11:25.740Z,35.40
2023-02-06T11:14:03.946Z,35.30
2023-02-06T11:16:32.968Z,35.50
2023-02-06T11:19:30.493Z,35.50
2023-02-06T11:22:25.634Z,35.50
2023-02-06T11:25:17.975Z,35.30
2023-02-06T11:27:45.360Z,35.30
2023-02-06T11:30:41.902Z,35.40
2023-02-06T11:33:22.987Z,35.10
2023-02-06T11:36:03.309Z,35.10
2023-02-06T11:38:34.260Z,35.20
2023-02-06T11:41:05.121Z,35.20
2023-02-06T11:43:53.952Z,35.30
2023-02-06T11:46:27.772Z,35.20
2023-02-06T11:49:00.210Z,35.20
2023-02-06T11:51:59.586Z,35.30
2023-02-06T11:54:54.498Z,35.10
2023-02-06T11:57:24.336Z,35.00
2023-02-06T11:59:55.879Z,35.30
2023-02-06T12:02:37.552Z,35.10
2023-02-06T12:05:16.919Z,35.10
2023-02-06T12:08:02.551Z,35.10
2023-02-06T12:10:36.600Z,35.10
2023-02-06T12:13:26.152Z,35.10
2023-02-06T12:15:57.825Z,35.10
2023-02-06T12:18:39.633Z,35.10
2023-02-06T12:21:15.642Z,35.10
2023-02-06T12:23:52.937Z,35.20
2023-02-06T12:26:23.854Z,35.00
2023-02-06T12:29:02.747Z,35.20
2023-02-06T12:31:50.537Z,35.10
2023-02-06T12:34:53.684Z,35.10
2023-02-06T12:37:39.580Z,35.10
2023-02-06T12:40:48.692Z,35.20
2023-02-06T12:43:19.000Z,35.10
2023-02-06T12:45:54.121Z,35.20
2023-02-06T12:48:47.478Z,35.20
2023-02-06T12:51:41.308Z,35.10
2023-02-06T12:54:28.464Z,35.10
2023-02-06T12:57:23.686Z,35.10
2023-02-06T13:00:45.805Z,35.10
2023-02-06T13:03:29.823Z,35.10
2023-02-06T13:06:21.289Z,35.10
2023-02-06T13:09:03.348Z,35.10
2023-02-06T13:11:40.728Z,35.10
2023-02-06T13:14:21.664Z,35.20
2023-02-06T13:17:10.358Z,35.10
2023-02-06T13:19:37.287Z,35.10
2023-02-06T13:22:10.016Z,35.10
2023-02-06T13:24:50.758Z,35.20
2023-02-06T13:27:39.359Z,35.10
2023-02-06T13:30:44.412Z,35.10
2023-02-06T13:33:22.666Z,35.10
2023-02-06T13:36:07.111Z,35.10
2023-02-06T13:38:33.927Z,35.10
2023-02-06T13:41:15.837Z,35.30
2023-02-06T13:43:58.753Z,35.10
2023-02-06T13:47:10.264Z,35.10
2023-02-06T13:50:43.447Z,35.10
2023-02-06T13:53:36.201Z,35.10
2023-02-06T13:56:40.630Z,35.10
2023-02-06T13:59:25.181Z,35.10
2023-02-06T14:01:53.495Z,35.20
2023-02-06T14:04:26.934Z,35.20
2023-02-06T14:07:21.979Z,35.20
2023-02-06T14:09:58.034Z,35.10
2023-02-06T14:12:40.037Z,35.10
2023-02-06T14:15:32.903Z,35.10
2023-02-06T14:18:30.633Z,35.10
2023-02-06T14:21:24.953Z,35.10
2023-02-06T14:24:15.021Z,35.10
2023-02-06T14:27:52.204Z,35.00
2023-02-06T14:30:44.722Z,35.00
2023-02-06T14:33:40.363Z,35.10
2023-02-06T14:36:50.291Z,35.10
2023-02-06T14:39:57.127Z,35.00
2023-02-06T14:42:41.970Z,35.00
2023-02-06T14:45:42.330Z,35.00
2023-02-06T14:48:35.917Z,35.00
2023-02-06T14:51:05.239Z,35.00
2023-02-06T14:53:39.158Z,35.00
2023-02-06T14:56:15.795Z,35.00
2023-02-06T14:58:46.306Z,35.00
2023-02-06T15:01:23.393Z,35.00
2023-02-06T15:03:52.789Z,35.00
2023-02-06T15:06:39.327Z,35.00
2023-02-06T15:09:07.329Z,34.90
2023-02-06T15:11:35.092Z,35.00
2023-02-06T15:14:20.964Z,35.00
2023-02-06T15:16:51.080Z,34.90
2023-02-06T15:19:25.105Z,34.90
2023-02-06T15:22:05.506Z,35.00
2023-02-06T15:24:44.369Z,34.90
2023-02-06T15:27:36.638Z,34.90
2023-02-06T15:30:25.958Z,34.60
2023-02-06T15:32:56.132Z,34.90
2023-02-06T15:35:33.548Z,34.90
2023-02-06T15:38:16.674Z,34.90
2023-02-06T15:41:08.323Z,35.00
2023-02-06T15:43:36.560Z,34.90
2023-02-06T15:46:05.945Z,35.00
2023-02-06T15:48:52.129Z,35.10
2023-02-06T15:51:30.901Z,35.10
2023-02-06T15:54:17.655Z,35.10
2023-02-06T15:56:51.356Z,35.20
2023-02-06T15:59:26.404Z,35.20
2023-02-06T16:01:57.447Z,35.20
2023-02-06T16:04:40.696Z,35.30
2023-02-06T16:07:22.285Z,35.30
2023-02-06T16:10:07.658Z,35.30
2023-02-06T16:12:42.484Z,35.30
2023-02-06T16:15:39.029Z,35.30
2023-02-06T16:18:29.859Z,36.20
2023-02-06T16:21:23.321Z,35.60
2023-02-06T16:24:03.250Z,35.50
2023-02-06T16:26:49.411Z,36.10
2023-02-06T16:29:29.456Z,35.50
2023-02-06T16:32:16.949Z,35.50
2023-02-06T16:34:46.381Z,35.50
2023-02-06T16:37:24.522Z,35.50
2023-02-06T16:39:51.941Z,35.50
2023-02-06T16:42:25.772Z,35.50
2023-02-06T16:44:59.660Z,35.50
2023-02-06T16:47:26.949Z,35.50
2023-02-06T16:49:53.982Z,35.50
2023-02-06T16:52:29.087Z,35.50
2023-02-06T16:54:59.079Z,35.50
2023-02-06T16:57:35.443Z,35.50
2023-02-06T17:00:09.461Z,35.50
2023-02-06T17:02:36.746Z,35.50
2023-02-06T17:05:05.008Z,35.50
2023-02-06T17:07:34.956Z,35.50
2023-02-06T17:10:02.918Z,35.50
2023-02-06T17:12:31.527Z,35.60
2023-02-06T17:14:58.524Z,35.40
2023-02-06T17:17:25.681Z,35.70
2023-02-06T17:19:54.210Z,36.00
2023-02-06T17:22:21.164Z,35.40
2023-02-06T17:24:49.034Z,35.40
2023-02-06T17:27:20.697Z,35.60
2023-02-06T17:29:49.477Z,35.50
2023-02-06T17:32:18.078Z,35.40
2023-02-06T17:34:44.969Z,35.40
2023-02-06T17:37:20.539Z,35.40
2023-02-06T17:39:52.680Z,35.30
2023-02-06T17:42:22.093Z,35.20
2023-02-06T17:44:49.436Z,35.20
2023-02-06T17:47:16.447Z,35.20
2023-02-06T17:49:43.856Z,35.10
2023-02-06T17:52:10.869Z,35.10
2023-02-06T17:54:37.998Z,35.00
2023-02-06T17:57:05.265Z,35.10
2023-02-06T17:59:32.241Z,35.60
2023-02-06T18:01:59.513Z,35.00
2023-02-06T18:04:26.914Z,35.00
2023-02-06T18:06:54.447Z,35.00
2023-02-06T18:09:21.506Z,35.00
2023-02-06T18:11:48.662Z,34.90
2023-02-06T18:14:15.700Z,35.00
2023-02-06T18:16:42.931Z,35.00
2023-02-06T18:19:10.542Z,34.90
2023-02-06T18:21:40.035Z,34.90
2023-02-06T18:24:08.110Z,34.80
2023-02-06T18:26:35.201Z,34.90
2023-02-06T18:29:06.205Z,35.00
2023-02-06T18:31:36.131Z,35.00
2023-02-06T18:34:08.082Z,34.90
2023-02-06T18:36:36.884Z,34.90
2023-02-06T18:39:05.936Z,34.90
2023-02-06T18:41:51.292Z,34.90
2023-02-06T18:44:18.461Z,35.00
2023-02-06T18:46:45.449Z,34.90
2023-02-06T18:49:12.528Z,35.00
2023-02-06T18:51:39.470Z,35.10
2023-02-06T18:54:07.962Z,35.00
2023-02-06T18:56:35.350Z,35.00
2023-02-06T18:59:03.978Z,35.00
2023-02-06T19:01:32.195Z,35.00
2023-02-06T19:03:59.474Z,35.10
2023-02-06T19:06:35.403Z,35.10
2023-02-06T19:09:06.975Z,35.10
2023-02-06T19:11:36.120Z,35.10
2023-02-06T19:14:05.216Z,35.10
2023-02-06T19:16:32.796Z,35.10
2023-02-06T19:19:00.213Z,35.10
2023-02-06T19:21:28.137Z,35.20
2023-02-06T19:23:58.733Z,35.20
2023-02-06T19:26:27.940Z,35.30
2023-02-06T19:28:55.943Z,35.20
2023-02-06T19:31:26.179Z,35.20
2023-02-06T19:34:00.416Z,34.80
2023-02-06T19:36:29.551Z,35.30
2023-02-06T19:39:09.264Z,35.20
2023-02-06T19:41:36.682Z,35.40
2023-02-06T19:44:12.106Z,35.30
2023-02-06T19:46:40.403Z,35.90
2023-02-06T19:49:08.807Z,35.30
2023-02-06T19:51:41.435Z,35.30
2023-02-06T19:54:08.649Z,35.30
2023-02-06T19:56:40.655Z,35.30
2023-02-06T19:59:19.436Z,35.40
2023-02-06T20:01:51.013Z,35.50
2023-02-06T20:04:21.483Z,35.40
2023-02-06T20:06:51.201Z,35.40
2023-02-06T20:09:20.598Z,35.40
2023-02-06T20:11:51.664Z,35.40
2023-02-06T20:14:19.153Z,35.40
2023-02-06T20:16:47.763Z,35.40
2023-02-06T20:19:23.374Z,35.40
2023-02-06T20:21:56.032Z,35.60
2023-02-06T20:24:27.782Z,35.50
2023-02-06T20:27:00.115Z,35.50
2023-02-06T20:29:35.478Z,35.50
2023-02-06T20:32:04.622Z,35.50
2023-02-06T20:34:32.150Z,35.60
2023-02-06T20:37:02.562Z,35.50
2023-02-06T20:39:31.104Z,35.50
2023-02-06T20:41:59.080Z,35.50
2023-02-06T20:44:26.563Z,35.50
2023-02-06T20:46:53.680Z,35.50
2023-02-06T20:49:25.033Z,35.60
2023-02-06T20:51:52.879Z,35.60
2023-02-06T20:54:21.657Z,35.70
2023-02-06T20:56:49.351Z,35.60
2023-02-06T20:59:19.473Z,35.60
2023-02-06T21:01:46.797Z,35.70
2023-02-06T21:04:15.808Z,35.70
2023-02-06T21:06:43.333Z,35.70
2023-02-06T21:09:11.725Z,35.70
2023-02-06T21:11:48.863Z,35.60
2023-02-06T21:14:16.899Z,35.70
2023-02-06T21:16:44.377Z,35.70
2023-02-06T21:19:15.211Z,35.30
2023-02-06T21:21:45.671Z,35.70
2023-02-06T21:24:15.056Z,35.70
2023-02-06T21:26:42.598Z,35.70
2023-02-06T21:29:12.899Z,35.70
2023-02-06T21:31:41.265Z,35.80
2023-02-06T21:34:18.102Z,35.70
2023-02-06T21:36:46.424Z,35.70
2023-02-06T21:39:20.507Z,35.80
2023-02-06T21:41:51.625Z,35.80
2023-02-06T21:44:18.745Z,35.80
2023-02-06T21:46:45.797Z,35.80
2023-02-06T21:49:13.586Z,35.70
2023-02-06T21:51:40.721Z,36.80
2023-02-06T21:54:08.845Z,35.80
2023-02-06T21:56:38.245Z,35.80
2023-02-06T21:59:06.548Z,35.80
2023-02-06T22:01:34.146Z,35.80
2023-02-06T22:04:03.606Z,35.80
2023-02-06T22:06:31.085Z,35.80
2023-02-06T22:09:05.183Z,35.80
2023-02-06T22:11:32.507Z,35.80
2023-02-06T22:14:03.154Z,35.90
2023-02-06T22:16:31.055Z,35.90
2023-02-06T22:19:00.704Z,35.90
2023-02-06T22:21:30.569Z,35.90
2023-02-06T22:24:04.610Z,36.00
2023-02-06T22:26:33.792Z,35.90
2023-02-06T22:29:01.038Z,35.80
2023-02-06T22:31:32.487Z,35.90
2023-02-06T22:34:00.822Z,35.90
2023-02-06T22:36:31.891Z,35.90
2023-02-06T22:39:09.858Z,36.00
2023-02-06T22:41:40.894Z,36.10
2023-02-06T22:44:08.626Z,35.90
2023-02-06T22:46:38.490Z,35.90
2023-02-06T22:49:08.828Z,36.00
2023-02-06T22:51:38.293Z,36.00
2023-02-06T22:54:06.322Z,36.00
2023-02-06T22:56:41.081Z,36.00
2023-02-06T22:59:24.845Z,36.00
2023-02-06T23:02:00.500Z,36.10
2023-02-06T23:04:34.636Z,36.00
2023-02-06T23:07:02.281Z,36.00
2023-02-06T23:09:35.258Z,36.00
2023-02-06T23:12:03.919Z,36.10
2023-02-06T23:14:33.579Z,36.00
2023-02-06T23:17:09.552Z,36.10
2023-02-06T23:19:40.555Z,36.10
2023-02-06T23:22:11.579Z,36.00
2023-02-06T23:24:42.047Z,36.10
2023-02-06T23:27:13.991Z,36.10
2023-02-06T23:29:41.190Z,36.00
2023-02-06T23:32:08.114Z,36.10
2023-02-06T23:34:35.097Z,36.10
2023-02-06T23:37:02.000Z,36.10
2023-02-06T23:39:28.898Z,36.10
2023-02-06T23:41:55.788Z,36.10
2023-02-06T23:44:22.688Z,36.10
2023-02-06T23:46:49.610Z,36.20
2023-02-06T23:49:16.565Z,36.10
2023-02-06T23:51:43.613Z,36.10
2023-02-06T23:54:10.675Z,36.20
2023-02-06T23:56:38.185Z,36.20
2023-02-06T23:59:06.675Z,36.20
